createdAt,value
2023-04-27T00:01:48.450Z,97.00
2023-04-27T00:04:16.642Z,97.40
2023-04-27T00:06:44.678Z,97.40
2023-04-27T00:09:13.938Z,97.20
2023-04-27T00:11:41.861Z,97.10
2023-04-27T00:14:09.605Z,97.10
2023-04-27T00:16:37.450Z,97.20
2023-04-27T00:19:05.316Z,96.70
2023-04-27T00:21:33.295Z,96.00
2023-04-27T00:24:00.997Z,95.40
2023-04-27T00:26:30.077Z,95.50
2023-04-27T00:28:58.023Z,95.50
2023-04-27T00:31:25.858Z,95.50
2023-04-27T00:33:53.644Z,95.40
2023-04-27T00:36:21.493Z,95.60
2023-04-27T00:38:49.249Z,95.50
2023-04-27T00:41:16.966Z,95.70
2023-04-27T00:43:47.221Z,95.40
2023-04-27T00:46:16.224Z,95.20
2023-04-27T00:48:44.530Z,95.30
2023-04-27T00:51:12.522Z,95.40
2023-04-27T00:53:40.613Z,95.30
2023-04-27T00:56:08.771Z,95.50
2023-04-27T00:58:36.515Z,95.30
2023-04-27T01:01:06.012Z,95.50
2023-04-27T01:03:33.945Z,95.70
2023-04-27T01:06:02.100Z,96.00
2023-04-27T01:08:30.000Z,96.30
2023-04-27T01:10:57.713Z,96.30
2023-04-27T01:13:25.515Z,96.40
2023-04-27T01:15:53.268Z,96.10
2023-04-27T01:18:22.307Z,96.10
2023-04-27T01:20:50.100Z,95.90
2023-04-27T01:23:19.224Z,96.10
2023-04-27T01:25:46.941Z,96.30
2023-04-27T01:28:14.735Z,95.80
2023-04-27T01:30:42.451Z,96.60
2023-04-27T01:33:10.851Z,96.40
2023-04-27T01:35:38.710Z,96.50
2023-04-27T01:38:06.486Z,96.50
2023-04-27T01:40:35.647Z,96.80
2023-04-27T01:43:03.400Z,96.40
2023-04-27T01:45:31.110Z,96.50
2023-04-27T01:47:58.872Z,96.30
2023-04-27T01:50:27.318Z,96.60
2023-04-27T01:52:55.051Z,96.50
2023-04-27T01:55:22.788Z,97.00
2023-04-27T01:57:51.846Z,96.70
2023-04-27T02:00:20.337Z,96.70
2023-04-27T02:02:48.264Z,96.90
2023-04-27T02:05:16.204Z,97.00
2023-04-27T02:07:44.025Z,97.20
2023-04-27T02:10:12.301Z,97.20
2023-04-27T02:12:40.009Z,97.30
2023-04-27T02:15:10.647Z,97.10
2023-04-27T02:17:39.492Z,97.50
2023-04-27T02:20:08.907Z,97.30
2023-04-27T02:22:36.922Z,97.50
2023-04-27T02:25:05.363Z,97.60
2023-04-27T02:27:33.077Z,97.80
2023-04-27T02:30:05.179Z,98.00
2023-04-27T02:32:35.344Z,98.10
2023-04-27T02:35:03.501Z,98.10
2023-04-27T02:37:31.341Z,98.20
2023-04-27T02:39:59.111Z,98.40
2023-04-27T02:42:26.876Z,98.20
2023-04-27T02:44:55.398Z,98.20
2023-04-27T02:47:23.140Z,98.50
2023-04-27T02:49:52.909Z,98.60
2023-04-27T02:52:20.666Z,98.50
2023-04-27T02:54:48.398Z,98.40
2023-04-27T02:57:16.333Z,98.40
2023-04-27T02:59:44.045Z,98.40
2023-04-27T03:02:11.747Z,98.70
2023-04-27T03:04:39.510Z,98.70
2023-04-27T03:07:08.730Z,98.80
2023-04-27T03:09:36.706Z,98.50
2023-04-27T03:12:05.061Z,98.50
2023-04-27T03:14:32.795Z,98.50
2023-04-27T03:17:01.843Z,98.50
2023-04-27T03:19:29.630Z,98.60
2023-04-27T03:21:57.345Z,98.80
2023-04-27T03:24:26.428Z,98.90
2023-04-27T03:26:54.148Z,99.20
2023-04-27T03:29:21.842Z,99.20
2023-04-27T03:31:49.602Z,99.50
2023-04-27T03:34:17.605Z,99.50
2023-04-27T03:36:45.435Z,99.60
2023-04-27T03:39:13.280Z,99.80
2023-04-27T03:41:42.502Z,99.80
2023-04-27T03:44:10.465Z,99.90
2023-04-27T03:46:38.193Z,99.70
2023-04-27T03:49:06.268Z,99.80
2023-04-27T03:51:34.373Z,99.50
2023-04-27T03:54:02.089Z,99.60
2023-04-27T03:56:29.795Z,99.70
2023-04-27T03:58:58.840Z,99.80
2023-04-27T04:01:26.553Z,99.80
2023-04-27T04:03:54.478Z,99.60
2023-04-27T04:06:22.279Z,99.50
2023-04-27T04:08:49.992Z,99.60
2023-04-27T04:11:17.788Z,99.70
2023-04-27T04:13:45.521Z,99.90
2023-04-27T04:16:14.954Z,99.90
2023-04-27T04:18:42.720Z,99.90
2023-04-27T04:21:11.100Z,99.90
2023-04-27T04:23:41.034Z,99.90
2023-04-27T04:26:08.929Z,99.90
2023-04-27T04:28:37.066Z,99.90
2023-04-27T04:31:06.455Z,99.90
2023-04-27T04:33:35.751Z,99.90
2023-04-27T04:36:04.896Z,99.90
2023-04-27T04:38:32.930Z,99.90
2023-04-27T04:41:01.067Z,99.90
2023-04-27T04:43:28.844Z,99.90
2023-04-27T04:45:56.565Z,99.90
2023-04-27T04:48:24.262Z,99.90
2023-04-27T04:50:53.298Z,99.90
2023-04-27T04:53:21.202Z,99.90
2023-04-27T04:55:48.895Z,99.90
2023-04-27T04:58:16.612Z,99.90
2023-04-27T05:00:44.327Z,99.90
2023-04-27T05:03:12.141Z,99.90
2023-04-27T05:05:39.988Z,99.90
2023-04-27T05:08:09.021Z,99.90
2023-04-27T05:10:36.765Z,99.90
2023-04-27T05:13:06.508Z,99.90
2023-04-27T05:15:34.844Z,99.90
2023-04-27T05:18:02.595Z,99.90
2023-04-27T05:20:30.341Z,99.90
2023-04-27T05:22:58.044Z,99.90
2023-04-27T05:25:27.131Z,99.90
2023-04-27T05:27:54.856Z,99.90
2023-04-27T05:30:22.835Z,99.90
2023-04-27T05:32:50.616Z,99.90
2023-04-27T05:35:18.446Z,99.90
2023-04-27T05:37:46.162Z,99.90
2023-04-27T05:40:15.881Z,99.90
2023-04-27T05:42:47.249Z,99.90
2023-04-27T05:45:15.210Z,99.90
2023-04-27T05:47:43.245Z,99.90
2023-04-27T05:50:11.757Z,99.90
2023-04-27T05:52:40.644Z,99.90
2023-04-27T05:55:09.016Z,99.90
2023-04-27T05:57:36.710Z,99.90
2023-04-27T06:00:10.519Z,99.90
2023-04-27T06:02:38.390Z,99.90
2023-04-27T06:05:07.107Z,99.90
2023-04-27T06:07:34.932Z,99.90
2023-04-27T06:10:03.086Z,99.90
2023-04-27T06:12:30.893Z,99.90
2023-04-27T06:14:58.671Z,99.90
2023-04-27T06:17:27.767Z,99.90
2023-04-27T06:19:55.605Z,99.90
2023-04-27T06:22:23.351Z,99.90
2023-04-27T06:24:51.170Z,99.90
2023-04-27T06:27:18.888Z,99.90
2023-04-27T06:29:47.308Z,99.90
2023-04-27T06:32:15.024Z,99.90
2023-04-27T06:34:44.089Z,99.90
2023-04-27T06:37:11.931Z,99.90
2023-04-27T06:39:40.191Z,99.40
2023-04-27T06:42:07.945Z,99.90
2023-04-27T06:44:35.797Z,99.70
2023-04-27T06:47:03.539Z,99.60
2023-04-27T06:49:31.343Z,99.50
2023-04-27T06:52:01.050Z,99.50
2023-04-27T06:54:28.773Z,98.50
2023-04-27T06:56:56.509Z,97.80
2023-04-27T06:59:24.234Z,98.40
2023-04-27T07:01:52.149Z,97.80
2023-04-27T07:04:20.023Z,98.10
2023-04-27T07:06:47.915Z,98.10
2023-04-27T07:09:27.164Z,97.30
2023-04-27T07:11:55.820Z,96.60
2023-04-27T07:14:23.758Z,96.30
2023-04-27T07:16:51.539Z,96.70
2023-04-27T07:19:19.548Z,96.30
2023-04-27T07:21:47.291Z,95.80
2023-04-27T07:24:17.282Z,95.60
2023-04-27T07:26:45.521Z,95.70
2023-04-27T07:29:26.288Z,93.80
2023-04-27T07:31:55.517Z,93.60
2023-04-27T07:34:23.797Z,94.50
2023-04-27T07:36:52.084Z,94.00
2023-04-27T07:39:21.135Z,95.30
2023-04-27T07:41:50.017Z,94.80
2023-04-27T07:44:19.584Z,95.20
2023-04-27T07:46:48.921Z,95.90
2023-04-27T07:49:16.938Z,94.00
2023-04-27T07:51:44.661Z,92.60
2023-04-27T07:54:12.494Z,92.40
2023-04-27T07:56:43.750Z,92.10
2023-04-27T07:59:11.912Z,91.70
2023-04-27T08:01:39.977Z,91.30
2023-04-27T08:04:07.981Z,90.80
2023-04-27T08:06:36.603Z,90.70
2023-04-27T08:09:05.244Z,90.40
2023-04-27T08:11:33.067Z,89.40
2023-04-27T08:14:02.126Z,90.80
2023-04-27T08:16:29.981Z,90.00
2023-04-27T08:18:58.668Z,88.00
2023-04-27T08:21:28.323Z,84.70
2023-04-27T08:23:56.511Z,84.10
2023-04-27T08:26:26.252Z,85.00
2023-04-27T08:28:56.300Z,87.00
2023-04-27T08:31:27.081Z,85.80
2023-04-27T08:33:55.344Z,88.70
2023-04-27T08:36:24.849Z,88.60
2023-04-27T08:38:52.765Z,83.30
2023-04-27T08:41:22.358Z,83.90
2023-04-27T08:43:51.124Z,85.00
2023-04-27T08:46:22.265Z,80.90
2023-04-27T08:48:52.889Z,79.80
2023-04-27T08:51:21.765Z,83.90
2023-04-27T08:53:52.006Z,84.30
2023-04-27T08:56:23.290Z,84.40
2023-04-27T08:58:51.091Z,82.00
2023-04-27T09:01:19.032Z,81.70
2023-04-27T09:03:47.713Z,78.70
2023-04-27T09:06:17.434Z,80.00
2023-04-27T09:08:46.827Z,76.70
2023-04-27T09:11:15.687Z,78.50
2023-04-27T09:13:45.494Z,78.10
2023-04-27T09:16:14.603Z,80.70
2023-04-27T09:18:43.688Z,81.60
2023-04-27T09:21:11.824Z,76.10
2023-04-27T09:23:41.810Z,75.80
2023-04-27T09:26:09.654Z,74.10
2023-04-27T09:28:39.758Z,76.60
2023-04-27T09:31:09.126Z,75.40
2023-04-27T09:33:37.719Z,77.20
2023-04-27T09:36:07.174Z,78.80
2023-04-27T09:38:35.332Z,78.60
2023-04-27T09:41:04.819Z,79.90
2023-04-27T09:43:32.831Z,77.10
2023-04-27T09:46:01.477Z,78.70
2023-04-27T09:48:29.390Z,78.40
2023-04-27T09:50:57.690Z,76.60
2023-04-27T09:53:30.376Z,77.10
2023-04-27T09:56:12.070Z,77.20
2023-04-27T09:59:11.106Z,76.20
2023-04-27T10:01:44.307Z,72.20
2023-04-27T10:04:37.595Z,70.00
2023-04-27T10:07:08.075Z,69.10
2023-04-27T10:09:37.558Z,70.50
2023-04-27T10:12:18.523Z,69.90
2023-04-27T10:14:53.942Z,69.20
2023-04-27T10:17:27.509Z,71.70
2023-04-27T10:19:58.479Z,67.00
2023-04-27T10:22:38.443Z,69.00
2023-04-27T10:25:16.446Z,69.80
2023-04-27T10:27:49.262Z,69.30
2023-04-27T10:30:19.349Z,72.40
2023-04-27T10:32:54.958Z,71.20
2023-04-27T10:35:23.626Z,68.20
2023-04-27T10:37:52.984Z,70.00
2023-04-27T10:40:20.772Z,73.10
2023-04-27T10:42:50.096Z,67.30
2023-04-27T10:45:31.107Z,64.90
2023-04-27T10:48:02.129Z,68.40
2023-04-27T10:50:31.949Z,67.70
2023-04-27T10:53:02.624Z,61.30
2023-04-27T10:55:31.135Z,60.30
2023-04-27T10:58:01.621Z,62.30
2023-04-27T11:00:31.931Z,65.30
2023-04-27T11:03:12.349Z,67.10
2023-04-27T11:05:40.209Z,66.40
2023-04-27T11:08:08.485Z,66.70
2023-04-27T11:10:39.696Z,59.80
2023-04-27T11:13:11.239Z,61.10
2023-04-27T11:15:46.914Z,62.90
2023-04-27T11:18:15.566Z,64.40
2023-04-27T11:20:45.600Z,63.90
2023-04-27T11:23:24.450Z,65.20
2023-04-27T11:25:52.465Z,66.50
2023-04-27T11:28:22.061Z,64.50
2023-04-27T11:30:56.954Z,70.90
2023-04-27T11:33:24.775Z,68.00
2023-04-27T11:35:53.773Z,64.90
2023-04-27T11:38:22.725Z,65.10
2023-04-27T11:41:01.194Z,67.50
2023-04-27T11:43:30.306Z,63.50
2023-04-27T11:45:58.708Z,61.20
2023-04-27T11:48:28.230Z,60.70
2023-04-27T11:51:01.048Z,59.60
2023-04-27T11:53:32.619Z,60.80
2023-04-27T11:56:02.180Z,61.60
2023-04-27T11:58:31.241Z,61.70
2023-04-27T12:00:59.268Z,59.60
2023-04-27T12:03:27.289Z,63.80
2023-04-27T12:05:55.325Z,61.80
2023-04-27T12:08:23.899Z,60.50
2023-04-27T12:10:52.398Z,59.90
2023-04-27T12:13:20.175Z,60.60
2023-04-27T12:15:49.220Z,65.80
2023-04-27T12:18:16.997Z,60.10
2023-04-27T12:20:44.765Z,61.70
2023-04-27T12:23:12.565Z,65.80
2023-04-27T12:25:41.086Z,64.60
2023-04-27T12:28:08.936Z,61.30
2023-04-27T12:30:36.973Z,61.20
2023-04-27T12:33:10.849Z,62.30
2023-04-27T12:35:38.802Z,67.00
2023-04-27T12:38:07.172Z,64.30
2023-04-27T12:40:35.094Z,62.40
2023-04-27T12:43:02.824Z,65.00
2023-04-27T12:45:30.582Z,66.20
2023-04-27T12:48:03.952Z,64.10
2023-04-27T12:50:33.902Z,61.30
2023-04-27T12:53:01.670Z,60.00
2023-04-27T12:55:32.920Z,63.20
2023-04-27T12:58:01.326Z,60.80
2023-04-27T13:00:29.423Z,61.60
2023-04-27T13:02:58.389Z,60.70
2023-04-27T13:05:26.710Z,60.90
2023-04-27T13:07:55.798Z,61.60
2023-04-27T13:10:23.529Z,58.60
2023-04-27T13:12:51.340Z,58.60
2023-04-27T13:15:19.168Z,57.80
2023-04-27T13:17:47.027Z,57.10
2023-04-27T13:20:15.481Z,57.70
2023-04-27T13:22:43.401Z,57.20
2023-04-27T13:25:14.265Z,58.50
2023-04-27T13:27:42.237Z,57.90
2023-04-27T13:30:11.329Z,58.00
2023-04-27T13:32:39.177Z,58.00
2023-04-27T13:35:07.830Z,58.90
2023-04-27T13:37:35.591Z,57.80
2023-04-27T13:40:05.238Z,61.00
2023-04-27T13:42:34.935Z,60.10
2023-04-27T13:45:04.158Z,56.80
2023-04-27T13:47:36.745Z,58.70
2023-04-27T13:50:06.699Z,59.50
2023-04-27T13:52:35.987Z,57.00
2023-04-27T13:55:04.146Z,58.10
2023-04-27T13:57:32.000Z,59.00
2023-04-27T14:00:01.714Z,58.30
2023-04-27T14:02:30.890Z,57.80
2023-04-27T14:04:58.875Z,58.20
2023-04-27T14:07:26.789Z,56.80
2023-04-27T14:09:54.505Z,56.80
2023-04-27T14:12:22.233Z,54.80
2023-04-27T14:14:49.972Z,57.40
2023-04-27T14:17:19.061Z,56.70
2023-04-27T14:19:46.839Z,57.60
2023-04-27T14:22:14.629Z,55.80
2023-04-27T14:24:42.368Z,57.50
2023-04-27T14:27:10.180Z,56.70
2023-04-27T14:29:37.939Z,56.70
2023-04-27T14:32:06.327Z,56.70
2023-04-27T14:34:36.539Z,56.80
2023-04-27T14:37:04.269Z,55.60
2023-04-27T14:39:32.023Z,56.80
2023-04-27T14:41:59.798Z,59.90
2023-04-27T14:44:27.511Z,58.10
2023-04-27T14:46:55.299Z,57.60
2023-04-27T14:49:23.047Z,57.20
2023-04-27T14:51:52.210Z,58.90
2023-04-27T14:54:20.079Z,58.20
2023-04-27T14:56:47.857Z,58.00
2023-04-27T14:59:15.990Z,56.60
2023-04-27T15:01:45.331Z,57.50
2023-04-27T15:04:13.157Z,58.90
2023-04-27T15:06:41.090Z,58.10
2023-04-27T15:09:11.640Z,59.10
2023-04-27T15:11:39.495Z,61.20
2023-04-27T15:14:08.341Z,58.70
2023-04-27T15:16:36.177Z,57.20
2023-04-27T15:19:04.016Z,57.70
2023-04-27T15:21:32.189Z,57.30
2023-04-27T15:23:59.986Z,59.50
2023-04-27T15:26:29.090Z,57.70
2023-04-27T15:28:58.158Z,57.10
2023-04-27T15:31:26.099Z,58.00
2023-04-27T15:33:54.701Z,55.80
2023-04-27T15:36:23.364Z,56.90
2023-04-27T15:38:51.869Z,56.90
2023-04-27T15:41:19.928Z,56.80
2023-04-27T15:43:49.064Z,59.30
2023-04-27T15:46:18.083Z,56.30
2023-04-27T15:48:45.997Z,57.10
2023-04-27T15:51:13.701Z,56.70
2023-04-27T15:53:41.426Z,57.30
2023-04-27T15:56:09.173Z,55.70
2023-04-27T15:58:36.907Z,56.10
2023-04-27T16:01:06.044Z,57.20
2023-04-27T16:03:34.703Z,54.70
2023-04-27T16:06:02.551Z,54.50
2023-04-27T16:08:32.117Z,54.40
2023-04-27T16:10:59.864Z,56.50
2023-04-27T16:13:28.553Z,56.60
2023-04-27T16:15:56.366Z,57.50
2023-04-27T16:18:25.495Z,57.60
2023-04-27T16:20:53.455Z,60.20
2023-04-27T16:23:21.417Z,59.40
2023-04-27T16:25:49.207Z,56.70
2023-04-27T16:28:17.915Z,56.90
2023-04-27T16:30:45.631Z,57.80
2023-04-27T16:33:13.785Z,57.10
2023-04-27T16:35:42.903Z,58.70
2023-04-27T16:38:10.767Z,57.40
2023-04-27T16:40:38.617Z,57.80
2023-04-27T16:43:06.506Z,58.10
2023-04-27T16:45:34.515Z,58.00
2023-04-27T16:48:02.378Z,57.60
2023-04-27T16:50:31.542Z,57.70
2023-04-27T16:53:06.936Z,58.20
2023-04-27T16:55:34.914Z,57.60
2023-04-27T16:58:02.988Z,57.10
2023-04-27T17:00:30.885Z,57.00
2023-04-27T17:02:58.748Z,57.70
2023-04-27T17:05:26.977Z,57.10
2023-04-27T17:07:54.969Z,57.90
2023-04-27T17:10:24.314Z,58.40
2023-04-27T17:12:52.141Z,61.70
2023-04-27T17:15:20.593Z,59.60
2023-04-27T17:17:48.335Z,59.80
2023-04-27T17:20:16.782Z,60.10
2023-04-27T17:22:45.204Z,60.10
2023-04-27T17:25:13.006Z,61.00
2023-04-27T17:27:42.185Z,59.80
2023-04-27T17:30:10.978Z,62.20
2023-04-27T17:32:39.006Z,62.40
2023-04-27T17:35:07.566Z,62.70
2023-04-27T17:37:35.508Z,64.20
2023-04-27T17:40:03.851Z,64.60
2023-04-27T17:42:32.653Z,63.80
2023-04-27T17:45:01.755Z,63.30
2023-04-27T17:47:29.495Z,62.90
2023-04-27T17:49:57.367Z,63.80
2023-04-27T17:52:25.099Z,63.70
2023-04-27T17:54:52.858Z,64.20
2023-04-27T17:57:20.597Z,63.50
2023-04-27T17:59:49.905Z,64.80
2023-04-27T18:02:19.087Z,65.80
2023-04-27T18:04:46.887Z,66.40
2023-04-27T18:07:14.762Z,67.50
2023-04-27T18:09:42.500Z,67.50
2023-04-27T18:12:11.119Z,67.00
2023-04-27T18:14:39.321Z,67.30
2023-04-27T18:17:07.087Z,66.90
2023-04-27T18:19:36.130Z,67.40
2023-04-27T18:22:03.835Z,67.60
2023-04-27T18:24:31.599Z,68.60
2023-04-27T18:26:59.891Z,67.20
2023-04-27T18:29:27.642Z,68.40
2023-04-27T18:31:56.859Z,68.10
2023-04-27T18:34:24.964Z,68.40
2023-04-27T18:36:54.020Z,69.60
2023-04-27T18:39:22.096Z,70.10
2023-04-27T18:41:49.884Z,70.00
2023-04-27T18:44:17.694Z,71.00
2023-04-27T18:46:46.105Z,71.10
2023-04-27T18:49:14.091Z,70.90
2023-04-27T18:51:41.960Z,70.90
2023-04-27T18:54:11.076Z,71.20
2023-04-27T18:56:38.817Z,72.10
2023-04-27T18:59:06.560Z,72.60
2023-04-27T19:01:34.330Z,72.50
2023-04-27T19:04:02.361Z,72.70
2023-04-27T19:06:31.297Z,73.50
2023-04-27T19:08:59.027Z,74.00
2023-04-27T19:11:28.752Z,74.80
2023-04-27T19:13:57.048Z,76.30
2023-04-27T19:16:24.953Z,76.60
2023-04-27T19:18:52.758Z,77.50
2023-04-27T19:21:20.508Z,78.50
2023-04-27T19:23:48.255Z,78.80
2023-04-27T19:26:16.181Z,78.80
2023-04-27T19:28:45.314Z,78.50
2023-04-27T19:31:13.203Z,77.90
2023-04-27T19:33:46.825Z,77.60
2023-04-27T19:36:15.070Z,78.30
2023-04-27T19:38:42.770Z,79.20
2023-04-27T19:41:10.642Z,79.50
2023-04-27T19:43:38.375Z,79.30
2023-04-27T19:46:07.607Z,79.20
2023-04-27T19:48:35.405Z,80.00
2023-04-27T19:51:03.284Z,81.00
2023-04-27T19:53:31.240Z,81.90
2023-04-27T19:56:00.658Z,81.80
2023-04-27T19:58:28.696Z,81.80
2023-04-27T20:00:56.513Z,81.90
2023-04-27T20:03:25.820Z,82.60
2023-04-27T20:05:53.876Z,83.20
2023-04-27T20:08:21.913Z,83.40
2023-04-27T20:10:49.654Z,83.70
2023-04-27T20:13:17.455Z,85.00
2023-04-27T20:15:45.266Z,84.60
2023-04-27T20:18:13.112Z,84.40
2023-04-27T20:20:42.875Z,84.90
2023-04-27T20:23:10.763Z,84.90
2023-04-27T20:25:38.890Z,85.10
2023-04-27T20:28:06.603Z,85.70
2023-04-27T20:30:34.326Z,86.40
2023-04-27T20:33:03.599Z,87.00
2023-04-27T20:35:31.350Z,87.10
2023-04-27T20:38:00.558Z,87.90
2023-04-27T20:40:28.383Z,88.20
2023-04-27T20:42:56.330Z,88.50
2023-04-27T20:45:25.311Z,88.30
2023-04-27T20:47:53.159Z,87.80
2023-04-27T20:50:21.088Z,88.50
2023-04-27T20:52:48.800Z,88.70
2023-04-27T20:55:19.047Z,89.20
2023-04-27T20:57:46.824Z,88.90
2023-04-27T21:00:15.596Z,88.60
2023-04-27T21:02:43.477Z,89.00
2023-04-27T21:05:11.808Z,89.00
2023-04-27T21:07:39.508Z,89.00
2023-04-27T21:10:08.366Z,89.20
2023-04-27T21:12:37.479Z,88.80
2023-04-27T21:15:05.783Z,88.90
2023-04-27T21:17:33.500Z,88.90
2023-04-27T21:20:01.437Z,89.10
2023-04-27T21:22:29.151Z,89.10
2023-04-27T21:24:56.975Z,89.50
2023-04-27T21:27:25.074Z,89.90
2023-04-27T21:29:54.197Z,90.10
2023-04-27T21:32:21.905Z,90.60
2023-04-27T21:34:49.614Z,90.70
2023-04-27T21:37:17.453Z,90.80
2023-04-27T21:39:45.207Z,90.60
2023-04-27T21:42:13.029Z,90.50
2023-04-27T21:44:40.859Z,90.40
2023-04-27T21:47:09.910Z,90.30
2023-04-27T21:49:37.628Z,90.40
2023-04-27T21:52:05.722Z,90.50
2023-04-27T21:54:33.528Z,90.50
2023-04-27T21:57:02.142Z,90.50
2023-04-27T21:59:29.916Z,90.60
2023-04-27T22:01:59.209Z,90.80
2023-04-27T22:04:29.005Z,90.80
2023-04-27T22:06:56.820Z,90.80
2023-04-27T22:09:24.531Z,90.80
2023-04-27T22:11:52.274Z,90.80
2023-04-27T22:14:19.982Z,91.10
2023-04-27T22:16:48.770Z,91.10
2023-04-27T22:19:17.807Z,91.10
2023-04-27T22:21:46.924Z,91.10
2023-04-27T22:24:15.000Z,91.00
2023-04-27T22:26:42.910Z,91.20
2023-04-27T22:29:10.604Z,91.60
2023-04-27T22:31:38.446Z,91.40
2023-04-27T22:34:06.331Z,89.70
2023-04-27T22:36:34.747Z,90.40
2023-04-27T22:39:04.193Z,90.40
2023-04-27T22:41:31.945Z,89.60
2023-04-27T22:43:59.733Z,88.60
2023-04-27T22:46:27.491Z,88.10
2023-04-27T22:48:55.254Z,88.30
2023-04-27T22:51:23.771Z,85.90
2023-04-27T22:53:51.500Z,86.30
2023-04-27T22:56:21.340Z,84.60
2023-04-27T22:58:49.124Z,84.60
2023-04-27T23:01:17.188Z,84.20
2023-04-27T23:03:45.103Z,83.30
2023-04-27T23:06:16.099Z,83.80
2023-04-27T23:08:46.841Z,82.80
2023-04-27T23:11:15.389Z,82.30
2023-04-27T23:13:47.972Z,82.90
2023-04-27T23:16:15.953Z,84.80
2023-04-27T23:18:43.720Z,84.30
2023-04-27T23:21:11.614Z,85.00
2023-04-27T23:23:39.455Z,86.10
2023-04-27T23:26:13.987Z,86.00
2023-04-27T23:28:42.213Z,85.70
2023-04-27T23:31:11.890Z,85.80
2023-04-27T23:33:39.735Z,85.50
2023-04-27T23:36:08.033Z,86.30
2023-04-27T23:38:35.728Z,84.90
2023-04-27T23:41:03.433Z,85.70
2023-04-27T23:43:31.614Z,86.40
2023-04-27T23:45:59.319Z,85.90
2023-04-27T23:48:28.395Z,86.70
2023-04-27T23:51:02.602Z,86.70
2023-04-27T23:53:31.397Z,87.10
2023-04-27T23:55:59.114Z,86.60
2023-04-27T23:58:26.860Z,86.40
